createdAt,value
2023-03-22T00:00:35.684Z,82.81
2023-03-22T00:03:27.705Z,82.88
2023-03-22T00:06:04.873Z,82.99
2023-03-22T00:08:41.782Z,83.07
2023-03-22T00:11:18.999Z,83.04
2023-03-22T00:13:55.370Z,83.17
2023-03-22T00:16:31.910Z,83.28
2023-03-22T00:19:08.417Z,83.35
2023-03-22T00:21:44.876Z,83.39
2023-03-22T00:24:21.833Z,83.40
2023-03-22T00:26:58.835Z,83.42
2023-03-22T00:29:35.084Z,83.40
2023-03-22T00:32:12.216Z,83.42
2023-03-22T00:34:49.086Z,83.42
2023-03-22T00:37:27.972Z,83.43
2023-03-22T00:40:04.760Z,83.56
2023-03-22T00:42:42.441Z,83.60
2023-03-22T00:45:19.385Z,83.60
2023-03-22T00:47:56.014Z,83.73
2023-03-22T00:50:32.703Z,83.97
2023-03-22T00:53:09.066Z,84.12
2023-03-22T00:55:45.625Z,84.15
2023-03-22T00:58:22.195Z,84.20
2023-03-22T01:00:58.597Z,84.13
2023-03-22T01:03:38.886Z,84.20
2023-03-22T01:06:16.644Z,84.18
2023-03-22T01:08:55.310Z,84.15
2023-03-22T01:11:31.981Z,84.34
2023-03-22T01:14:09.787Z,84.51
2023-03-22T01:16:46.364Z,84.62
2023-03-22T01:19:23.409Z,84.71
2023-03-22T01:22:00.634Z,84.80
2023-03-22T01:24:37.421Z,84.82
2023-03-22T01:27:13.816Z,84.86
2023-03-22T01:29:50.792Z,84.97
2023-03-22T01:32:27.116Z,85.09
2023-03-22T01:35:03.379Z,85.14
2023-03-22T01:37:39.818Z,85.19
2023-03-22T01:40:19.749Z,85.16
2023-03-22T01:42:57.609Z,85.28
2023-03-22T01:45:46.064Z,85.38
2023-03-22T01:48:31.425Z,85.31
2023-03-22T01:51:15.019Z,85.39
2023-03-22T01:54:36.534Z,85.29
2023-03-22T01:57:19.749Z,85.26
2023-03-22T01:59:56.335Z,85.18
2023-03-22T02:02:52.603Z,85.03
2023-03-22T02:05:38.182Z,85.00
2023-03-22T02:08:15.246Z,85.06
2023-03-22T02:11:22.875Z,84.98
2023-03-22T02:14:34.099Z,84.84
2023-03-22T02:17:51.455Z,84.63
2023-03-22T02:21:31.282Z,84.63
2023-03-22T02:25:24.730Z,84.78
2023-03-22T02:28:36.551Z,85.16
2023-03-22T02:31:49.928Z,85.31
2023-03-22T02:34:57.382Z,85.44
2023-03-22T02:38:18.770Z,85.56
2023-03-22T02:41:04.086Z,85.66
2023-03-22T02:43:52.661Z,85.75
2023-03-22T02:46:40.090Z,85.83
2023-03-22T02:49:32.238Z,85.99
2023-03-22T02:52:17.801Z,86.10
2023-03-22T02:55:05.878Z,86.13
2023-03-22T02:57:54.007Z,86.20
2023-03-22T03:00:32.407Z,86.22
2023-03-22T03:03:15.075Z,86.21
2023-03-22T03:05:58.778Z,86.19
2023-03-22T03:08:36.266Z,86.12
2023-03-22T03:11:14.219Z,86.08
2023-03-22T03:13:52.980Z,86.06
2023-03-22T03:16:36.821Z,86.00
2023-03-22T03:19:27.589Z,86.00
2023-03-22T03:22:18.793Z,86.07
2023-03-22T03:25:03.596Z,86.14
2023-03-22T03:27:49.931Z,86.27
2023-03-22T03:30:39.150Z,86.34
2023-03-22T03:33:25.174Z,86.37
2023-03-22T03:36:08.293Z,86.42
2023-03-22T03:38:52.210Z,86.43
2023-03-22T03:41:33.151Z,86.40
2023-03-22T03:44:10.543Z,86.45
2023-03-22T03:46:49.274Z,86.56
2023-03-22T03:49:27.405Z,86.58
2023-03-22T03:52:05.603Z,86.55
2023-03-22T03:54:42.832Z,86.60
2023-03-22T03:57:23.874Z,86.56
2023-03-22T04:00:00.154Z,86.55
2023-03-22T04:02:55.047Z,86.55
2023-03-22T04:05:56.179Z,86.62
2023-03-22T04:08:33.029Z,86.64
2023-03-22T04:11:10.404Z,86.69
2023-03-22T04:13:48.317Z,86.70
2023-03-22T04:16:26.465Z,86.70
2023-03-22T04:19:03.192Z,86.76
2023-03-22T04:21:39.533Z,86.83
2023-03-22T04:24:17.206Z,86.83
2023-03-22T04:26:54.927Z,86.81
2023-03-22T04:29:36.476Z,86.81
2023-03-22T04:32:27.220Z,86.79
2023-03-22T04:35:05.966Z,86.81
2023-03-22T04:37:43.142Z,86.73
2023-03-22T04:40:26.664Z,86.73
2023-03-22T04:43:13.720Z,86.71
2023-03-22T04:45:58.537Z,86.69
2023-03-22T04:48:42.202Z,86.69
2023-03-22T04:51:20.065Z,86.62
2023-03-22T04:54:43.259Z,86.63
2023-03-22T04:57:19.940Z,86.63
2023-03-22T04:59:57.471Z,86.49
2023-03-22T05:02:33.869Z,86.50
2023-03-22T05:05:12.178Z,86.50
2023-03-22T05:07:49.865Z,86.47
2023-03-22T05:10:26.118Z,86.42
2023-03-22T05:13:02.628Z,86.39
2023-03-22T05:15:49.782Z,86.39
2023-03-22T05:18:28.054Z,86.34
2023-03-22T05:21:11.813Z,86.30
2023-03-22T05:23:51.478Z,86.20
2023-03-22T05:26:30.083Z,86.17
2023-03-22T05:29:06.537Z,86.10
2023-03-22T05:31:55.808Z,86.02
2023-03-22T05:34:35.994Z,86.07
2023-03-22T05:37:23.664Z,85.95
2023-03-22T05:40:05.374Z,85.89
2023-03-22T05:42:45.642Z,85.90
2023-03-22T05:45:29.634Z,85.90
2023-03-22T05:48:18.957Z,85.90
2023-03-22T05:50:55.665Z,85.80
2023-03-22T05:53:33.229Z,85.75
2023-03-22T05:56:24.394Z,85.81
2023-03-22T05:59:04.293Z,85.69
2023-03-22T06:01:41.232Z,85.55
2023-03-22T06:04:27.532Z,85.30
2023-03-22T06:07:06.672Z,85.36
2023-03-22T06:09:52.404Z,85.25
2023-03-22T06:12:31.674Z,85.10
2023-03-22T06:15:25.137Z,84.83
2023-03-22T06:18:16.637Z,84.66
2023-03-22T06:20:55.264Z,84.57
2023-03-22T06:23:33.056Z,84.48
2023-03-22T06:26:11.470Z,84.09
2023-03-22T06:28:48.108Z,83.92
2023-03-22T06:31:24.580Z,83.75
2023-03-22T06:34:12.363Z,83.78
2023-03-22T06:36:51.149Z,83.67
2023-03-22T06:39:42.071Z,83.72
2023-03-22T06:42:18.615Z,83.50
2023-03-22T06:44:56.575Z,83.24
2023-03-22T06:47:39.229Z,83.35
2023-03-22T06:50:40.327Z,83.22
2023-03-22T06:53:21.579Z,82.79
2023-03-22T06:55:58.520Z,82.86
2023-03-22T06:58:35.026Z,83.00
2023-03-22T07:01:11.936Z,82.92
2023-03-22T07:03:48.658Z,82.74
2023-03-22T07:06:26.650Z,82.59
2023-03-22T07:09:04.031Z,82.46
2023-03-22T07:11:43.354Z,82.33
2023-03-22T07:14:19.790Z,82.13
2023-03-22T07:17:16.464Z,82.01
2023-03-22T07:19:53.649Z,81.93
2023-03-22T07:22:32.205Z,81.71
2023-03-22T07:25:11.674Z,81.50
2023-03-22T07:27:48.385Z,81.12
2023-03-22T07:30:25.308Z,80.90
2023-03-22T07:33:01.852Z,80.47
2023-03-22T07:35:39.069Z,80.32
2023-03-22T07:38:15.783Z,79.94
2023-03-22T07:40:55.986Z,79.79
2023-03-22T07:43:47.316Z,79.43
2023-03-22T07:46:47.658Z,78.53
2023-03-22T07:49:33.380Z,77.95
2023-03-22T07:52:16.842Z,77.12
2023-03-22T07:54:53.137Z,76.75
2023-03-22T07:57:29.429Z,76.07
2023-03-22T08:00:12.105Z,75.34
2023-03-22T08:03:03.974Z,74.55
2023-03-22T08:06:08.260Z,74.47
2023-03-22T08:08:44.675Z,74.22
2023-03-22T08:11:21.144Z,73.49
2023-03-22T08:13:57.612Z,72.09
2023-03-22T08:16:34.078Z,71.11
2023-03-22T08:19:11.532Z,70.05
2023-03-22T08:21:48.097Z,70.28
2023-03-22T08:24:36.893Z,70.13
2023-03-22T08:27:16.452Z,70.04
2023-03-22T08:29:59.200Z,69.50
2023-03-22T08:32:37.488Z,69.44
2023-03-22T08:35:16.024Z,68.89
2023-03-22T08:37:56.589Z,69.51
2023-03-22T08:40:36.532Z,69.47
2023-03-22T08:43:13.518Z,68.93
2023-03-22T08:45:50.511Z,69.34
2023-03-22T08:48:30.877Z,69.38
2023-03-22T08:51:23.839Z,70.20
2023-03-22T08:54:10.110Z,70.19
2023-03-22T08:57:39.116Z,69.78
2023-03-22T09:01:03.898Z,69.19
2023-03-22T09:03:46.527Z,69.55
2023-03-22T09:06:23.272Z,69.98
2023-03-22T09:09:00.059Z,69.86
2023-03-22T09:11:37.409Z,69.72
2023-03-22T09:14:15.135Z,69.46
2023-03-22T09:16:52.006Z,69.69
2023-03-22T09:19:28.754Z,69.76
2023-03-22T09:22:05.262Z,69.33
2023-03-22T09:24:49.195Z,69.51
2023-03-22T09:27:25.958Z,68.25
2023-03-22T09:30:02.531Z,68.08
2023-03-22T09:32:41.560Z,67.70
2023-03-22T09:35:19.693Z,67.74
2023-03-22T09:38:06.780Z,67.27
2023-03-22T09:41:00.590Z,67.24
2023-03-22T09:43:43.745Z,66.77
2023-03-22T09:46:31.578Z,67.16
2023-03-22T09:49:15.355Z,66.87
2023-03-22T09:51:54.884Z,67.53
2023-03-22T09:54:39.596Z,67.52
2023-03-22T09:57:30.504Z,67.13
2023-03-22T10:00:23.424Z,66.40
2023-03-22T10:03:21.131Z,65.90
2023-03-22T10:06:07.444Z,65.55
2023-03-22T10:09:00.593Z,65.53
2023-03-22T10:11:48.494Z,64.19
2023-03-22T10:14:39.327Z,63.21
2023-03-22T10:17:25.068Z,63.26
2023-03-22T10:20:09.927Z,63.36
2023-03-22T10:22:51.622Z,62.50
2023-03-22T10:25:38.250Z,62.37
2023-03-22T10:28:28.088Z,61.65
2023-03-22T10:31:06.014Z,61.34
2023-03-22T10:33:50.627Z,60.48
2023-03-22T10:36:35.031Z,59.90
2023-03-22T10:39:24.938Z,60.04
2023-03-22T10:42:06.782Z,60.30
2023-03-22T10:44:51.879Z,58.37
2023-03-22T10:47:41.498Z,57.97
2023-03-22T10:50:28.709Z,57.85
2023-03-22T10:53:12.844Z,58.19
2023-03-22T10:55:49.674Z,57.70
2023-03-22T10:58:32.396Z,56.83
2023-03-22T11:01:14.425Z,55.81
2023-03-22T11:03:57.253Z,55.91
2023-03-22T11:06:39.395Z,54.72
2023-03-22T11:09:23.549Z,54.75
2023-03-22T11:12:02.404Z,54.63
2023-03-22T11:14:45.482Z,55.23
2023-03-22T11:17:27.135Z,54.45
2023-03-22T11:20:07.850Z,54.12
2023-03-22T11:22:48.175Z,53.44
2023-03-22T11:25:32.510Z,53.91
2023-03-22T11:28:23.392Z,53.24
2023-03-22T11:31:11.668Z,52.72
2023-03-22T11:34:02.414Z,52.50
2023-03-22T11:36:54.753Z,52.64
2023-03-22T11:39:37.130Z,52.97
2023-03-22T11:42:23.642Z,52.95
2023-03-22T11:45:00.709Z,52.97
2023-03-22T11:47:41.622Z,52.68
2023-03-22T11:50:33.433Z,52.19
2023-03-22T11:53:17.882Z,53.40
2023-03-22T11:55:58.416Z,53.48
2023-03-22T11:58:55.788Z,53.64
2023-03-22T12:01:45.855Z,53.68
2023-03-22T12:04:30.832Z,53.43
2023-03-22T12:07:15.828Z,53.68
2023-03-22T12:10:01.456Z,53.52
2023-03-22T12:12:45.757Z,53.99
2023-03-22T12:15:28.944Z,53.95
2023-03-22T12:18:13.961Z,53.80
2023-03-22T12:20:57.239Z,53.31
2023-03-22T12:23:36.570Z,52.75
2023-03-22T12:26:21.580Z,52.53
2023-03-22T12:29:03.671Z,52.57
2023-03-22T12:31:52.551Z,53.01
2023-03-22T12:34:41.201Z,52.84
2023-03-22T12:37:28.019Z,53.07
2023-03-22T12:40:19.535Z,53.09
2023-03-22T12:43:11.808Z,52.84
2023-03-22T12:45:54.632Z,52.26
2023-03-22T12:48:40.873Z,52.22
2023-03-22T12:51:18.839Z,52.61
2023-03-22T12:53:59.979Z,52.33
2023-03-22T12:56:44.744Z,51.60
2023-03-22T12:59:28.219Z,51.69
2023-03-22T13:02:18.507Z,51.76
2023-03-22T13:05:01.069Z,51.99
2023-03-22T13:07:58.995Z,52.02
2023-03-22T13:11:05.313Z,51.00
2023-03-22T13:13:50.003Z,51.33
2023-03-22T13:17:00.800Z,50.81
2023-03-22T13:19:52.539Z,51.14
2023-03-22T13:23:11.206Z,51.22
2023-03-22T13:26:06.781Z,50.76
2023-03-22T13:28:44.010Z,51.54
2023-03-22T13:31:45.207Z,51.41
2023-03-22T13:34:33.970Z,51.23
2023-03-22T13:37:31.721Z,51.76
2023-03-22T13:40:25.100Z,51.47
2023-03-22T13:43:24.499Z,51.71
2023-03-22T13:46:50.789Z,51.83
2023-03-22T13:49:59.748Z,51.75
2023-03-22T13:52:45.854Z,51.66
2023-03-22T13:55:58.357Z,51.52
2023-03-22T13:58:56.206Z,50.72
2023-03-22T14:01:39.032Z,51.22
2023-03-22T14:04:22.978Z,50.89
2023-03-22T14:07:19.683Z,51.34
2023-03-22T14:10:01.533Z,51.05
2023-03-22T14:12:55.318Z,50.41
2023-03-22T14:15:37.363Z,50.55
2023-03-22T14:18:25.958Z,50.21
2023-03-22T14:21:09.469Z,49.68
